Time;durP1;ratioP1;P1;durP2;ratioP2;P2;SDS_P1;SDS_P2;PMS_P1;PMS_P2;Temp;Humidity;BMP_temperature;BMP_pressure;BME280_temperature;BME280_humidity;BME280_pressure;Samples;Min_cycle;Max_cycle;Signal;HPM_P1;HPM_P2
2022/09/07 00:00:05;;;;;;;13.70;11.27;;;;;;;23.94;54.34;101200.94;4941415;28;121843;-78
2022/09/07 00:02:32;;;;;;;13.15;11.05;;;;;;;23.90;54.37;101201.25;4939637;28;114317;-78
2022/09/07 00:04:59;;;;;;;13.25;10.75;;;;;;;23.87;54.30;101201.53;4944891;28;114563;-78
2022/09/07 00:07:26;;;;;;;12.43;10.77;;;;;;;23.83;54.31;101200.13;4947646;28;123920;-78
2022/09/07 00:09:53;;;;;;;13.07;10.75;;;;;;;23.78;54.41;101191.56;4946354;28;124171;-79
2022/09/07 00:12:20;;;;;;;13.88;10.85;;;;;;;23.74;54.43;101183.91;4944997;28;114116;-78
2022/09/07 00:14:47;;;;;;;12.57;9.98;;;;;;;23.69;54.63;101178.91;4939135;28;113867;-78
2022/09/07 00:17:14;;;;;;;11.82;10.10;;;;;;;23.65;54.70;101174.81;4948838;28;124054;-77
2022/09/07 00:19:41;;;;;;;13.27;10.07;;;;;;;23.62;54.59;101166.97;4951540;28;124072;-78
2022/09/07 00:22:08;;;;;;;12.23;9.65;;;;;;;23.58;54.66;101168.28;4948189;28;113973;-78
2022/09/07 00:24:35;;;;;;;12.60;9.45;;;;;;;23.50;54.62;101172.56;4943962;28;114313;-78
2022/09/07 00:27:02;;;;;;;10.52;9.07;;;;;;;23.43;54.52;101171.44;4952288;28;123314;-77
2022/09/07 00:29:29;;;;;;;12.05;9.45;;;;;;;23.35;54.59;101168.59;4944496;28;123230;-78
2022/09/07 00:31:56;;;;;;;11.35;8.75;;;;;;;23.29;54.68;101158.38;4948195;28;114057;-77
2022/09/07 00:34:23;;;;;;;14.43;9.32;;;;;;;;;;4947266;28;113955;-78
2022/09/07 00:36:50;;;;;;;11.35;9.02;;;;;;;23.11;54.94;101145.59;4958320;28;123814;-78
2022/09/07 00:39:17;;;;;;;11.65;9.25;;;;;;;23.02;54.90;101143.72;4943876;28;123932;-77
2022/09/07 00:41:45;;;;;;;11.43;8.80;;;;;;;22.94;55.16;101143.56;4944949;28;114822;-78
2022/09/07 00:44:43;;;;;;;9.63;7.47;;;;;;;22.84;55.02;101138.16;4945954;28;113692;-78
2022/09/07 00:47:19;;;;;;;10.77;7.72;;;;;;;22.76;55.23;101148.00;4941574;28;124383;-78
2022/09/07 00:49:53;;;;;;;9.10;6.68;;;;;;;22.65;55.17;101138.16;4945166;28;124119;-78
2022/09/07 00:52:23;;;;;;;9.90;6.68;;;;;;;22.57;55.40;101141.56;4946281;28;116092;-77
2022/09/07 00:54:58;;;;;;;8.23;5.85;;;;;;;22.49;55.53;101149.50;4951465;28;115379;-77
2022/09/07 00:57:27;;;;;;;9.00;6.20;;;;;;;22.40;55.36;101134.16;4940065;28;123353;-78
2022/09/07 00:59:56;;;;;;;5.75;5.15;;;;;;;22.32;55.47;101143.78;4943287;28;123122;-77
2022/09/07 01:02:24;;;;;;;6.95;5.68;;;;;;;22.24;55.48;101151.69;4934347;28;113272;-78
2022/09/07 01:05:00;;;;;;;6.70;5.07;;;;;;;22.15;55.89;101152.50;4938275;28;113061;-78
2022/09/07 01:07:32;;;;;;;7.70;4.97;;;;;;;22.09;55.84;101161.16;4946195;28;123765;-77
2022/09/07 01:09:59;;;;;;;5.88;4.38;;;;;;;22.02;55.57;101157.28;4951774;28;123159;-78
2022/09/07 01:12:26;;;;;;;4.72;3.70;;;;;;;21.95;55.71;101163.22;4942490;28;112932;-77
2022/09/07 01:14:54;;;;;;;7.35;4.10;;;;;;;21.89;55.73;101162.94;4942701;28;112875;-77
2022/09/07 01:17:36;;;;;;;6.50;3.88;;;;;;;21.84;55.90;101165.16;4940430;28;123363;-78
2022/09/07 01:20:41;;;;;;;4.90;3.70;;;;;;;21.77;55.80;101160.31;4962063;28;125086;-77
2022/09/07 01:23:35;;;;;;;4.55;3.55;;;;;;;21.72;55.61;101161.72;4943858;28;114046;-77
2022/09/07 01:26:43;;;;;;;5.63;3.53;;;;;;;21.64;55.45;101158.81;4925952;28;113619;-78
2022/09/07 01:29:30;;;;;;;5.68;3.20;;;;;;;21.58;55.78;101152.09;4955158;28;124218;-77
2022/09/07 01:32:26;;;;;;;5.35;3.45;;;;;;;21.51;55.75;101159.88;4945488;28;124107;-77
2022/09/07 01:34:53;;;;;;;6.05;3.25;;;;;;;21.46;55.89;101166.66;4939965;28;115219;-78
2022/09/07 01:37:36;;;;;;;4.88;3.25;;;;;;;21.42;55.81;101166.03;4949143;28;113888;-77
2022/09/07 01:40:15;;;;;;;3.75;3.30;;;;;;;21.38;55.98;101175.38;4942772;28;123858;-78
2022/09/07 01:43:03;;;;;;;4.18;3.03;;;;;;;21.36;55.97;101177.31;4944022;28;123068;-78
2022/09/07 01:45:34;;;;;;;5.07;3.03;;;;;;;21.34;56.03;101179.28;4946148;28;114312;-78
2022/09/07 01:48:07;;;;;;;6.00;3.00;;;;;;;21.33;56.29;101177.59;4955505;28;113902;-77
2022/09/07 01:51:02;;;;;;;4.80;3.20;;;;;;;21.29;55.93;101170.78;4946237;28;123988;-78
2022/09/07 01:53:45;;;;;;;4.20;2.95;;;;;;;21.26;56.13;101160.25;4940195;28;124449;-78
2022/09/07 01:56:20;;;;;;;5.88;3.10;;;;;;;21.23;56.26;101160.50;4943270;28;114202;-77
2022/09/07 01:58:55;;;;;;;4.65;3.22;;;;;;;21.18;56.17;101148.28;4944841;28;113967;-77
2022/09/07 02:01:35;;;;;;;5.53;3.28;;;;;;;21.14;56.25;101152.22;4941118;28;123791;-78
2022/09/07 02:04:14;;;;;;;5.40;3.20;;;;;;;21.10;56.29;101161.56;4926560;28;123871;-77
2022/09/07 02:06:48;;;;;;;5.22;3.20;;;;;;;21.08;56.62;101163.53;4938707;28;114564;-78
2022/09/07 02:09:28;;;;;;;5.33;3.00;;;;;;;21.05;56.54;101152.16;4945829;28;114265;-79
2022/09/07 02:11:56;;;;;;;6.10;3.45;;;;;;;21.04;56.69;101145.03;4942713;28;123324;-78
2022/09/07 02:14:32;;;;;;;5.57;3.00;;;;;;;21.02;56.78;101137.13;4947495;28;124156;-76
2022/09/07 02:17:12;;;;;;;6.35;3.05;;;;;;;20.98;56.96;101147.28;4955249;28;113530;-78
2022/09/07 02:19:52;;;;;;;5.07;3.20;;;;;;;20.94;56.90;101148.50;4939889;28;113147;-77
2022/09/07 02:22:25;;;;;;;4.88;3.20;;;;;;;20.93;57.20;101148.66;4928966;28;122753;-77
2022/09/07 02:24:57;;;;;;;5.35;2.80;;;;;;;20.93;57.17;101148.66;4939703;28;122329;-78
2022/09/07 02:27:38;;;;;;;4.20;2.80;;;;;;;20.93;57.38;101154.03;4939040;28;113761;-78
2022/09/07 02:30:05;;;;;;;5.18;2.97;;;;;;;20.93;57.40;101149.50;4958435;28;113725;-78
2022/09/07 02:32:32;;;;;;;4.25;3.05;;;;;;;20.94;57.51;101144.97;4944640;28;124817;-78
2022/09/07 02:35:00;;;;;;;4.35;2.70;;;;;;;20.96;57.62;101137.63;4948397;28;122145;-77
2022/09/07 02:37:28;;;;;;;4.10;3.22;;;;;;;20.98;57.80;101141.91;4943623;28;114769;-78
2022/09/07 02:39:55;;;;;;;4.53;3.28;;;;;;;21.01;58.02;101151.56;4938218;28;115633;-77
2022/09/07 02:42:22;;;;;;;4.40;2.92;;;;;;;21.05;57.99;101150.31;4947471;28;125022;-77
2022/09/07 02:44:50;;;;;;;5.32;3.05;;;;;;;21.09;57.94;101149.06;4943996;28;124061;-78
2022/09/07 02:47:28;;;;;;;4.30;3.17;;;;;;;21.12;58.29;101154.19;4949118;28;115291;-77
2022/09/07 02:50:09;;;;;;;4.82;2.90;;;;;;;21.14;57.99;101146.84;4958422;28;113857;-78
2022/09/07 02:52:58;;;;;;;4.40;2.67;;;;;;;21.18;57.88;101142.88;4943463;28;122259;-77
2022/09/07 02:55:39;;;;;;;6.25;3.17;;;;;;;21.20;58.09;101140.91;4935819;28;122659;-77
2022/09/07 02:58:32;;;;;;;5.03;3.00;;;;;;;21.23;57.98;101133.56;4940273;28;114474;-77
2022/09/07 03:01:10;;;;;;;5.15;3.28;;;;;;;21.27;57.91;101140.41;4938977;28;114144;-77
2022/09/07 03:03:49;;;;;;;5.07;2.92;;;;;;;21.29;58.00;101133.06;4922037;28;124808;-77
2022/09/07 03:06:28;;;;;;;4.20;2.83;;;;;;;21.31;57.75;101131.06;4935146;28;123119;-77
2022/09/07 03:09:00;;;;;;;5.05;2.92;;;;;;;21.32;57.97;101124.69;4941182;28;114515;-78
2022/09/07 03:11:28;;;;;;;4.85;2.83;;;;;;;21.34;57.93;101114.63;4939563;28;113522;-77
2022/09/07 03:14:15;;;;;;;4.55;2.88;;;;;;;21.35;57.81;101116.34;4944083;28;123870;-77
2022/09/07 03:16:42;;;;;;;4.05;2.75;;;;;;;21.36;57.92;101112.66;4936770;28;123828;-77
2022/09/07 03:19:09;;;;;;;3.50;2.70;;;;;;;21.37;57.97;101108.97;4920307;28;113741;-78
2022/09/07 03:21:36;;;;;;;4.03;2.83;;;;;;;21.37;58.02;101120.59;4942061;28;113892;-79
2022/09/07 03:24:04;;;;;;;6.43;3.05;;;;;;;21.38;58.10;101122.31;4943141;28;124576;-77
2022/09/07 03:26:31;;;;;;;3.72;3.13;;;;;;;21.41;58.11;101121.19;4939583;28;123164;-78
2022/09/07 03:28:58;;;;;;;4.78;3.10;;;;;;;21.44;58.24;101115.59;4943749;28;115067;-77
2022/09/07 03:31:25;;;;;;;4.63;2.92;;;;;;;21.47;58.10;101109.91;4945986;28;114868;-77
2022/09/07 03:33:53;;;;;;;3.50;3.05;;;;;;;21.48;57.95;101106.25;4937317;28;122297;-77
2022/09/07 03:36:20;;;;;;;5.50;3.30;;;;;;;21.47;57.86;101104.53;4944354;28;124585;-77
2022/09/07 03:38:47;;;;;;;5.13;3.35;;;;;;;21.42;57.94;101106.75;4952858;28;113483;-78
2022/09/07 03:41:14;;;;;;;3.80;2.75;;;;;;;21.38;58.11;101111.56;4952661;28;113247;-77
2022/09/07 03:43:42;;;;;;;4.78;2.85;;;;;;;21.37;58.25;101115.22;4941923;28;124678;-77
2022/09/07 03:46:09;;;;;;;4.20;3.05;;;;;;;21.38;58.28;101132.25;4940428;28;122798;-77
2022/09/07 03:48:37;;;;;;;5.70;3.00;;;;;;;21.41;58.24;101126.59;4944976;28;113912;-77
2022/09/07 03:51:07;;;;;;;5.25;3.17;;;;;;;21.43;58.44;101124.59;4936391;28;113678;-77
2022/09/07 03:53:39;;;;;;;4.55;2.92;;;;;;;21.44;58.51;101120.97;4940549;28;124629;-77
2022/09/07 03:56:12;;;;;;;5.95;2.92;;;;;;;21.47;58.52;101115.31;4941271;28;124144;-78
2022/09/07 03:58:39;;;;;;;3.70;2.75;;;;;;;21.48;58.43;101117.03;4955931;28;113802;-77
2022/09/07 04:01:10;;;;;;;6.85;3.20;;;;;;;21.50;58.58;101120.44;4938204;28;113846;-78
2022/09/07 04:03:38;;;;;;;4.75;3.15;;;;;;;21.52;58.46;101121.16;4937543;28;124547;-78
2022/09/07 04:06:05;;;;;;;4.82;3.75;;;;;;;21.53;58.47;101125.56;4924823;28;122264;-77
2022/09/07 04:08:34;;;;;;;5.25;3.70;;;;;;;21.53;58.66;101122.88;4943818;28;114373;-77
2022/09/07 04:11:04;;;;;;;9.98;3.55;;;;;;;21.54;58.54;101121.03;4944042;28;114463;-78
2022/09/07 04:13:34;;;;;;;5.75;3.67;;;;;;;21.54;58.67;101121.88;4945141;28;122894;-78
2022/09/07 04:16:19;;;;;;;6.00;3.90;;;;;;;21.54;58.63;101121.88;4915973;28;123149;-78
2022/09/07 04:18:49;;;;;;;6.95;3.60;;;;;;;21.55;58.50;101115.50;4941416;28;115171;-80
2022/09/07 04:21:17;;;;;;;6.22;3.88;;;;;;;21.53;58.44;101109.41;4957009;28;114866;-77
2022/09/07 04:23:44;;;;;;;6.43;3.83;;;;;;;21.53;58.72;101103.13;4945883;28;123461;-77
2022/09/07 04:26:18;;;;;;;5.53;4.00;;;;;;;21.51;58.57;101103.28;4946311;28;123784;-79
2022/09/07 04:28:45;;;;;;;6.03;3.67;;;;;;;21.51;58.70;101084.44;4943781;28;113549;-77
2022/09/07 04:31:15;;;;;;;5.93;3.97;;;;;;;21.52;58.41;101091.50;4950301;28;112989;-79
2022/09/07 04:33:43;;;;;;;5.57;3.80;;;;;;;21.52;58.59;101096.91;4951956;28;123370;-78
2022/09/07 04:36:11;;;;;;;4.95;3.97;;;;;;;21.51;58.54;101100.59;4958147;28;123869;-78
2022/09/07 04:38:41;;;;;;;5.82;4.28;;;;;;;21.51;58.40;101110.50;4962326;28;113359;-78
2022/09/07 04:41:11;;;;;;;5.88;4.00;;;;;;;21.50;58.56;101117.75;4940028;28;112850;-77
2022/09/07 04:43:39;;;;;;;4.20;3.75;;;;;;;21.50;58.72;101109.66;4951037;28;124472;-77
2022/09/07 04:46:18;;;;;;;5.97;4.72;;;;;;;21.51;58.77;101099.72;4941541;28;122891;-78
2022/09/07 04:48:50;;;;;;;5.25;4.20;;;;;;;21.51;58.68;101100.59;4938504;28;113832;-78
2022/09/07 04:51:18;;;;;;;5.65;4.18;;;;;;;21.53;58.77;101104.00;4946891;28;113283;-77
2022/09/07 04:53:50;;;;;;;6.47;4.22;;;;;;;21.52;58.80;101115.75;4949688;28;122803;-78
2022/09/07 04:56:18;;;;;;;6.22;4.70;;;;;;;21.53;58.78;101130.09;4940779;28;124092;-77
2022/09/07 04:58:46;;;;;;;9.18;5.05;;;;;;;21.53;58.73;101120.19;4942746;28;113407;-78
2022/09/07 05:01:16;;;;;;;9.13;5.38;;;;;;;21.52;58.92;101129.25;4945277;28;114501;-77
2022/09/07 05:03:44;;;;;;;7.63;5.10;;;;;;;21.52;58.77;101123.00;4942806;28;124591;-77
2022/09/07 05:06:12;;;;;;;9.93;5.65;;;;;;;21.50;58.87;101112.34;4956692;28;122558;-78
2022/09/07 05:08:42;;;;;;;7.80;5.25;;;;;;;21.50;58.97;101125.81;4952567;28;115034;-78
2022/09/07 05:11:10;;;;;;;8.93;5.63;;;;;;;21.50;58.89;101131.22;4962170;28;115025;-78
2022/09/07 05:13:37;;;;;;;10.63;5.60;;;;;;;21.50;58.86;101136.59;4962066;28;124128;-78
2022/09/07 05:16:10;;;;;;;8.50;6.15;;;;;;;21.49;59.16;101137.59;4945545;28;123351;-77
2022/09/07 05:18:37;;;;;;;6.93;5.60;;;;;;;21.51;59.00;101141.03;4955953;28;116239;-79
2022/09/07 05:21:08;;;;;;;8.00;6.35;;;;;;;21.50;58.99;101131.22;4932635;28;112933;-77
2022/09/07 05:23:35;;;;;;;9.63;7.20;;;;;;;21.50;59.06;101144.69;4971975;28;124346;-79
2022/09/07 05:26:04;;;;;;;10.30;6.40;;;;;;;21.48;59.03;101127.81;4959619;28;125710;-78
2022/09/07 05:28:33;;;;;;;6.68;5.95;;;;;;;21.49;59.07;101128.66;4952678;28;113294;-79
2022/09/07 05:31:05;;;;;;;8.38;6.25;;;;;;;21.47;59.12;101115.31;4945496;28;113935;-79
2022/09/07 05:33:52;;;;;;;6.85;6.15;;;;;;;21.49;59.02;101112.47;4936863;28;123865;-79
2022/09/07 05:36:40;;;;;;;8.35;5.95;;;;;;;21.50;58.99;101120.44;4941649;28;124831;-80
2022/09/07 05:39:07;;;;;;;8.98;6.28;;;;;;;21.50;58.91;101125.81;4920407;28;113645;-80
2022/09/07 05:41:35;;;;;;;9.02;6.50;;;;;;;21.50;58.93;101120.44;4937441;28;113546;-80
2022/09/07 05:44:02;;;;;;;9.90;6.40;;;;;;;21.49;58.85;101118.75;4944113;28;123903;-80
2022/09/07 05:46:53;;;;;;;10.07;6.35;;;;;;;21.49;59.01;101121.44;4936365;28;124596;-80
2022/09/07 05:49:20;;;;;;;9.13;6.50;;;;;;;21.50;58.86;101123.13;4941242;28;114350;-81
2022/09/07 05:51:47;;;;;;;8.60;6.75;;;;;;;21.49;58.85;101124.13;4952043;28;113316;-80
2022/09/07 05:54:14;;;;;;;8.05;6.65;;;;;;;21.51;58.77;101124.84;4959397;28;123846;-81
2022/09/07 05:56:41;;;;;;;8.80;6.97;;;;;;;21.50;58.95;101120.44;4955157;28;124211;-80
2022/09/07 05:59:12;;;;;;;8.38;6.78;;;;;;;21.50;59.04;101131.22;4936662;28;114802;-79
2022/09/07 06:01:54;;;;;;;10.27;7.45;;;;;;;21.49;59.01;101124.13;4951534;28;114444;-80
2022/09/07 06:04:22;;;;;;;9.43;8.25;;;;;;;21.50;59.24;101120.44;4944893;28;123024;-80
2022/09/07 06:06:49;;;;;;;9.80;7.32;;;;;;;21.53;59.22;101130.97;4945214;28;122950;-80
2022/09/07 06:09:37;;;;;;;9.30;8.30;;;;;;;21.58;59.25;101133.25;4958502;28;113974;-81
2022/09/07 06:12:25;;;;;;;13.80;8.20;;;;;;;21.61;59.16;101132.97;4957516;28;113974;-81
2022/09/07 06:14:52;;;;;;;10.13;7.47;;;;;;;21.61;59.12;101137.53;4932825;28;123108;-81
2022/09/07 06:17:19;;;;;;;8.25;7.25;;;;;;;21.64;59.38;101131.84;4960227;28;123468;-82
2022/09/07 06:19:46;;;;;;;10.88;8.48;;;;;;;21.66;59.50;101130.75;4948087;28;113449;-80
2022/09/07 06:22:13;;;;;;;9.90;7.75;;;;;;;21.69;59.51;101135.84;4931083;28;113994;-80
2022/09/07 06:24:40;;;;;;;10.68;8.20;;;;;;;21.73;59.62;101131.03;4939126;28;124229;-81
2022/09/07 06:27:07;;;;;;;11.50;8.40;;;;;;;21.75;59.54;101129.06;4928406;28;122811;-81
2022/09/07 06:29:34;;;;;;;9.73;8.70;;;;;;;21.77;59.41;101132.47;4942017;28;115022;-81
2022/09/07 06:32:02;;;;;;;10.43;7.72;;;;;;;21.81;59.48;101139.31;4950394;28;113788;-80
2022/09/07 06:34:49;;;;;;;9.50;7.97;;;;;;;21.81;59.31;101144.69;4949540;28;123462;-81
2022/09/07 06:37:16;;;;;;;11.20;7.32;;;;;;;21.81;59.28;101142.00;4935832;28;124170;-80
2022/09/07 06:39:43;;;;;;;9.00;7.57;;;;;;;21.84;59.35;101149.84;4943950;28;114143;-82
2022/09/07 06:42:10;;;;;;;10.35;7.93;;;;;;;21.84;59.40;101155.22;4944208;28;114253;-80
2022/09/07 06:44:42;;;;;;;12.98;8.35;;;;;;;21.84;59.44;101155.22;4933498;28;122186;-80
2022/09/07 06:47:09;;;;;;;12.57;8.77;;;;;;;21.85;59.37;101151.56;4932966;28;123008;-80
2022/09/07 06:49:36;;;;;;;10.98;8.38;;;;;;;21.85;59.38;101146.16;4948539;28;115523;-80
2022/09/07 06:52:03;;;;;;;10.13;8.43;;;;;;;21.90;59.86;101160.06;4948553;28;114519;-81
2022/09/07 06:54:30;;;;;;;12.32;9.15;;;;;;;21.94;59.95;101156.13;4950364;28;124076;-80
2022/09/07 06:57:17;;;;;;;10.25;9.00;;;;;;;22.04;60.04;101149.91;4943749;28;123630;-80
2022/09/07 06:59:44;;;;;;;15.40;9.43;;;;;;;22.11;59.98;101153.78;4921940;28;113198;-80
2022/09/07 07:02:13;;;;;;;12.82;9.68;;;;;;;22.18;59.73;101157.63;4931523;28;114754;-81
2022/09/07 07:04:40;;;;;;;11.05;9.52;;;;;;;22.23;59.89;101158.09;4919425;28;123140;-80
2022/09/07 07:07:12;;;;;;;12.15;10.13;;;;;;;22.25;59.76;101166.91;4946146;28;124384;-80
2022/09/07 07:09:40;;;;;;;19.77;10.75;;;;;;;22.28;59.77;101174.75;4948655;28;113444;-80
2022/09/07 07:12:09;;;;;;;13.80;10.70;;;;;;;22.29;59.44;101176.44;4949483;28;113720;-79
2022/09/07 07:14:36;;;;;;;15.35;11.23;;;;;;;22.29;59.55;101170.19;4948430;28;122875;-80
2022/09/07 07:17:08;;;;;;;17.27;11.98;;;;;;;22.30;59.47;101172.78;4948388;28;123919;-81
2022/09/07 07:19:35;;;;;;;15.85;11.98;;;;;;;22.35;59.91;101165.09;4950001;28;114184;-80
2022/09/07 07:22:02;;;;;;;14.15;11.75;;;;;;;22.43;59.76;101166.25;4949024;28;113995;-80
2022/09/07 07:24:49;;;;;;;13.73;11.80;;;;;;;22.51;59.75;101153.78;4921898;28;123157;-80
2022/09/07 07:27:16;;;;;;;14.57;12.30;;;;;;;22.57;59.47;101157.75;4939253;28;123434;-80
2022/09/07 07:29:44;;;;;;;16.30;12.02;;;;;;;22.60;59.35;101162.88;4945214;28;115156;-80
2022/09/07 07:32:11;;;;;;;14.50;12.10;;;;;;;22.61;59.42;101170.00;4930731;28;113862;-79
2022/09/07 07:34:38;;;;;;;16.27;12.65;;;;;;;22.63;59.43;101157.19;4914662;28;124086;-79
2022/09/07 07:37:05;;;;;;;15.88;11.65;;;;;;;22.65;59.40;101176.81;4951392;28;122806;-80
2022/09/07 07:39:32;;;;;;;15.05;11.98;;;;;;;22.67;59.33;101176.69;4951391;28;115127;-80
2022/09/07 07:42:19;;;;;;;20.05;12.27;;;;;;;22.74;59.47;101181.38;4950093;28;114243;-80
2022/09/07 07:44:47;;;;;;;15.77;11.98;;;;;;;22.86;59.76;101186.66;4950192;28;124027;-80
2022/09/07 07:47:14;;;;;;;17.13;13.10;;;;;;;23.01;59.99;101182.53;4949383;28;123812;-81
2022/09/07 07:49:41;;;;;;;18.17;12.43;;;;;;;23.16;59.50;101184.84;4929569;28;113930;-80
2022/09/07 07:52:08;;;;;;;17.08;12.32;;;;;;;23.28;59.29;101172.88;4944345;28;114000;-80
2022/09/07 07:54:56;;;;;;;14.93;11.65;;;;;;;23.38;59.06;101178.28;4942277;28;124533;-79
2022/09/07 07:57:23;;;;;;;16.40;12.23;;;;;;;23.47;58.87;101177.41;4948658;28;123844;-80
2022/09/07 07:59:50;;;;;;;15.98;12.65;;;;;;;23.55;58.79;101185.66;4950139;28;114274;-80
2022/09/07 08:02:17;;;;;;;17.92;13.30;;;;;;;23.62;58.48;101180.50;4949483;28;113271;-80
2022/09/07 08:04:44;;;;;;;18.05;12.38;;;;;;;23.66;58.60;101187.34;4952082;28;123922;-79
2022/09/07 08:07:11;;;;;;;17.98;13.43;;;;;;;23.72;58.57;101181.34;4967634;28;123677;-80
2022/09/07 08:09:40;;;;;;;20.70;14.25;;;;;;;23.77;58.50;101184.47;4952650;28;114194;-82
2022/09/07 08:12:10;;;;;;;21.33;14.23;;;;;;;23.84;58.42;101191.00;4921188;28;113037;-82
2022/09/07 08:14:40;;;;;;;21.77;13.38;;;;;;;23.93;58.24;101193.84;4940913;28;123435;-81
2022/09/07 08:17:13;;;;;;;19.60;13.20;;;;;;;23.97;58.00;101187.13;4937209;28;123606;-81
2022/09/07 08:19:41;;;;;;;18.67;13.85;;;;;;;24.02;57.79;101187.53;4933029;28;113797;-81
2022/09/07 08:22:10;;;;;;;19.55;13.68;;;;;;;24.09;57.87;101188.63;4949082;28;114558;-81
2022/09/07 08:24:37;;;;;;;20.48;13.95;;;;;;;24.15;57.81;101193.47;4944462;28;123745;-81
2022/09/07 08:27:04;;;;;;;21.35;14.15;;;;;;;24.24;57.47;101197.97;4945751;28;124043;-81
2022/09/07 08:29:31;;;;;;;19.60;14.52;;;;;;;24.33;57.33;101195.38;4950016;28;115543;-81
2022/09/07 08:32:05;;;;;;;19.95;14.57;;;;;;;24.41;57.33;101203.56;4951367;28;113958;-81
2022/09/07 08:34:35;;;;;;;22.33;15.60;;;;;;;24.47;56.99;101209.25;4946986;28;125069;-81
2022/09/07 08:37:02;;;;;;;20.58;15.45;;;;;;;24.53;56.91;101207.84;4947356;28;124695;-81
2022/09/07 08:39:29;;;;;;;20.00;14.95;;;;;;;24.62;56.65;101206.94;4940087;28;114126;-81
2022/09/07 08:42:28;;;;;;;21.38;15.95;;;;;;;24.74;56.99;101204.00;4947123;28;114106;-81
2022/09/07 08:45:04;;;;;;;23.30;15.95;;;;;;;24.86;57.02;101198.22;4943814;28;123810;-81
2022/09/07 08:47:35;;;;;;;22.80;16.00;;;;;;;24.96;56.44;101198.13;4951924;28;124205;-81
2022/09/07 08:50:17;;;;;;;21.65;16.02;;;;;;;25.02;55.92;101202.94;4949487;28;115385;-81
2022/09/07 08:53:03;;;;;;;23.75;17.33;;;;;;;25.08;56.03;101206.03;4952280;28;114233;-81
2022/09/07 08:55:45;;;;;;;23.27;17.30;;;;;;;25.11;55.75;101211.13;4949455;28;124128;-81
2022/09/07 08:58:42;;;;;;;21.63;16.20;;;;;;;25.12;55.45;101218.25;4949136;28;123000;-81
2022/09/07 09:01:41;;;;;;;20.45;15.65;;;;;;;25.08;55.08;101222.28;4941475;28;114588;-81
2022/09/07 09:04:29;;;;;;;19.58;14.48;;;;;;;25.01;54.71;101225.59;4949816;28;114071;-81
2022/09/07 09:07:15;;;;;;;18.58;13.93;;;;;;;24.98;54.54;101217.81;4950293;28;124915;-80
2022/09/07 09:10:01;;;;;;;20.60;13.98;;;;;;;24.97;54.80;101213.38;4950213;28;124521;-81
2022/09/07 09:12:47;;;;;;;17.63;13.77;;;;;;;24.98;54.77;101228.63;4947732;28;113655;-80
2022/09/07 09:15:31;;;;;;;20.08;13.82;;;;;;;24.99;54.50;101219.47;4953314;28;113465;-82
2022/09/07 09:18:46;;;;;;;18.58;13.90;;;;;;;25.02;54.60;101219.19;4934907;28;123467;-81
2022/09/07 09:21:16;;;;;;;19.00;14.02;;;;;;;25.08;54.41;101222.28;4949005;28;123256;-81
2022/09/07 09:23:46;;;;;;;17.30;13.48;;;;;;;25.11;54.22;101222.84;4952397;28;115315;-81
2022/09/07 09:26:34;;;;;;;19.90;14.32;;;;;;;25.16;54.22;101222.34;4953002;28;115559;-81
2022/09/07 09:29:31;;;;;;;14.32;11.18;;;;;;;25.26;54.36;101225.88;4953746;28;123100;-81
2022/09/07 09:31:58;;;;;;;14.23;11.70;;;;;;;25.36;54.17;101221.22;4931768;28;124154;-81
2022/09/07 09:34:26;;;;;;;16.67;11.68;;;;;;;25.48;53.96;101229.09;4954631;28;115275;-81
2022/09/07 09:36:57;;;;;;;13.85;10.90;;;;;;;25.59;54.04;101227.00;4931443;28;112683;-81
2022/09/07 09:39:29;;;;;;;14.68;10.82;;;;;;;25.73;53.63;101228.28;4923852;28;124356;-82
2022/09/07 09:42:00;;;;;;;12.85;10.07;;;;;;;25.81;53.10;101231.06;4948231;28;123642;-80
2022/09/07 09:44:32;;;;;;;12.70;10.40;;;;;;;25.89;53.13;101226.69;4943179;28;113441;-81
2022/09/07 09:47:01;;;;;;;13.05;9.48;;;;;;;25.97;52.62;101229.47;4933151;28;114219;-81
2022/09/07 09:49:48;;;;;;;11.73;9.70;;;;;;;26.07;52.50;101230.22;4938296;28;124732;-81
2022/09/07 09:52:18;;;;;;;13.20;10.35;;;;;;;26.16;51.92;101223.84;4964593;28;123806;-81
2022/09/07 09:55:06;;;;;;;11.82;9.88;;;;;;;26.25;52.30;101226.59;4936739;28;113815;-81
2022/09/07 09:58:00;;;;;;;13.02;9.65;;;;;;;26.33;51.88;101223.88;4951403;28;114569;-80
2022/09/07 10:00:57;;;;;;;13.05;9.70;;;;;;;26.44;52.08;101226.31;4951534;28;123842;-81
2022/09/07 10:03:44;;;;;;;11.30;9.50;;;;;;;26.57;51.69;101223.97;4938813;28;123427;-81
2022/09/07 10:06:30;;;;;;;12.48;9.02;;;;;;;26.66;51.40;101219.47;4952000;28;112269;-81
2022/09/07 10:09:00;;;;;;;10.80;8.35;;;;;;;26.72;51.12;101217.94;4951895;28;114302;-81
2022/09/07 10:11:41;;;;;;;9.98;7.63;;;;;;;26.79;50.63;101208.97;4952276;28;124874;-81
2022/09/07 10:14:40;;;;;;;9.93;8.05;;;;;;;26.91;50.52;101212.22;4951885;28;123733;-81
2022/09/07 10:17:18;;;;;;;10.32;7.38;;;;;;;26.99;50.03;101225.84;4950102;28;114851;-81
2022/09/07 10:19:45;;;;;;;9.27;6.97;;;;;;;27.08;49.90;101206.81;4930378;28;112875;-81
2022/09/07 10:22:23;;;;;;;8.60;6.57;;;;;;;27.15;49.61;101205.13;4940217;28;124516;-82
2022/09/07 10:24:51;;;;;;;6.63;5.03;;;;;;;27.26;49.44;101198.53;4948897;28;124375;-81
2022/09/07 10:27:36;;;;;;;8.55;5.80;;;;;;;27.35;48.94;101209.22;4948302;28;114743;-80
2022/09/07 10:30:13;;;;;;;7.82;5.65;;;;;;;27.45;48.42;101202.75;4960533;28;113396;-81
2022/09/07 10:32:58;;;;;;;7.82;5.50;;;;;;;27.53;48.74;101203.59;4934353;28;124967;-81
2022/09/07 10:35:29;;;;;;;7.97;5.45;;;;;;;27.63;48.38;101206.13;4939249;28;124246;-82
2022/09/07 10:38:15;;;;;;;7.22;5.55;;;;;;;27.69;47.92;101210.91;4950172;28;115026;-81
2022/09/07 10:40:48;;;;;;;7.30;5.55;;;;;;;27.74;47.35;101200.31;4942809;28;113647;-82
2022/09/07 10:43:27;;;;;;;8.10;5.80;;;;;;;27.79;47.54;101193.53;4934264;28;124050;-81
2022/09/07 10:46:03;;;;;;;8.98;5.78;;;;;;;27.83;47.49;101195.72;4947010;28;123610;-80
2022/09/07 10:48:46;;;;;;;7.40;5.72;;;;;;;27.83;47.13;101201.16;4960238;28;113993;-81
2022/09/07 10:51:31;;;;;;;7.57;5.45;;;;;;;27.79;46.64;101196.25;4956806;28;113652;-81
2022/09/07 10:54:31;;;;;;;7.20;5.45;;;;;;;27.80;47.00;101196.06;4956890;28;124098;-82
2022/09/07 10:57:28;;;;;;;8.07;5.95;;;;;;;27.84;47.10;101202.00;4958947;28;123225;-82
2022/09/07 11:00:07;;;;;;;6.95;5.93;;;;;;;27.85;46.53;101199.13;4948560;28;113327;-81
2022/09/07 11:03:03;;;;;;;8.60;5.95;;;;;;;27.84;46.74;101196.56;4952756;28;114114;-81
2022/09/07 11:06:13;;;;;;;7.63;6.32;;;;;;;27.87;46.88;101196.22;4954431;28;124193;-81
2022/09/07 11:08:53;;;;;;;7.88;5.70;;;;;;;27.89;46.52;101194.19;4951915;28;123503;-82
2022/09/07 11:12:05;;;;;;;6.57;5.20;;;;;;;27.86;46.02;101195.38;4934026;28;115840;-81
2022/09/07 11:14:47;;;;;;;8.00;5.15;;;;;;;27.88;46.03;101197.94;4936971;28;114084;-82
2022/09/07 11:17:20;;;;;;;7.85;5.20;;;;;;;27.88;45.80;101187.03;4951819;28;124628;-81
2022/09/07 11:20:12;;;;;;;7.88;5.32;;;;;;;27.92;45.91;101189.25;4950066;28;123247;-81
2022/09/07 11:22:48;;;;;;;6.45;4.97;;;;;;;28.04;46.21;101186.16;4939835;28;113813;-81
2022/09/07 11:25:15;;;;;;;7.20;4.00;;;;;;;28.17;46.30;101182.88;4917338;28;113217;-81
2022/09/07 11:28:06;;;;;;;5.30;4.10;;;;;;;28.29;45.61;101185.06;4943806;28;123892;-81
2022/09/07 11:30:39;;;;;;;5.93;3.88;;;;;;;28.38;45.15;101183.13;4914579;28;122849;-81
2022/09/07 11:33:24;;;;;;;5.75;3.60;;;;;;;28.47;45.05;101176.59;4930462;28;112823;-80
2022/09/07 11:36:01;;;;;;;;;;;;;;;28.50;45.81;101170.81;4939938;28;113105;-81
2022/09/07 11:38:33;;;;;;;5.70;3.40;;;;;;;28.54;44.84;101177.63;4942028;28;124771;-81
2022/09/07 11:41:06;;;;;;;5.43;2.88;;;;;;;28.57;44.49;101170.13;4950985;28;123178;-81
2022/09/07 11:43:42;;;;;;;4.13;2.20;;;;;;;28.60;43.79;101180.66;4960496;28;114328;-81